Time;durP1;ratioP1;P1;durP2;ratioP2;P2;SDS_P1;SDS_P2;PMS_P1;PMS_P2;Temp;Humidity;BMP_temperature;BMP_pressure;BME280_temperature;BME280_humidity;BME280_pressure;Samples;Min_cycle;Max_cycle;Signal;HPM_P1;HPM_P2
2022/09/20 00:01:10;;;;;;;4.93;1.90;;;13.60;76.30;;;;;;5111240;28;20026;-63
2022/09/20 00:03:38;;;;;;;7.88;2.33;;;13.60;76.30;;;;;;5112706;28;20028;-63
2022/09/20 00:06:06;;;;;;;11.70;2.50;;;13.60;76.40;;;;;;5113289;28;20019;-63
2022/09/20 00:08:31;;;;;;;6.68;1.85;;;13.60;76.40;;;;;;5113288;28;20452;-63
2022/09/20 00:11:06;;;;;;;8.88;2.40;;;13.60;76.40;;;;;;5111835;28;20031;-63
2022/09/20 00:13:32;;;;;;;8.82;2.53;;;13.60;76.50;;;;;;5112955;28;20052;-63
2022/09/20 00:15:58;;;;;;;12.40;2.75;;;13.50;76.50;;;;;;5112874;28;20032;-63
2022/09/20 00:18:25;;;;;;;7.35;2.30;;;13.60;76.60;;;;;;5095073;28;20401;-63
2022/09/20 00:20:52;;;;;;;7.32;2.25;;;13.50;76.60;;;;;;5110489;28;20016;-63
2022/09/20 00:23:18;;;;;;;8.05;2.45;;;13.50;76.60;;;;;;5112557;28;20027;-63
2022/09/20 00:25:45;;;;;;;6.30;2.00;;;13.50;76.60;;;;;;5112011;28;20042;-63
2022/09/20 00:28:11;;;;;;;8.27;2.10;;;13.50;76.70;;;;;;5094776;28;20141;-63
2022/09/20 00:30:37;;;;;;;7.18;2.33;;;13.50;76.80;;;;;;5112530;28;20028;-63
2022/09/20 00:33:03;;;;;;;6.97;2.33;;;13.50;76.80;;;;;;5111496;28;20026;-63
2022/09/20 00:35:29;;;;;;;6.30;1.83;;;13.50;76.90;;;;;;5113171;28;20028;-63
2022/09/20 00:37:56;;;;;;;6.47;2.38;;;13.50;76.90;;;;;;5126861;28;20031;-63
2022/09/20 00:40:22;;;;;;;7.13;1.90;;;13.50;76.90;;;;;;5112478;28;20020;-63
2022/09/20 00:42:49;;;;;;;7.18;2.30;;;13.50;77.00;;;;;;5112486;28;20034;-63
2022/09/20 00:45:30;;;;;;;6.75;1.67;;;13.50;77.00;;;;;;5113192;28;20076;-63
2022/09/20 00:48:08;;;;;;;7.60;2.33;;;13.50;77.00;;;;;;5115746;27;20028;-63
2022/09/20 00:50:51;;;;;;;5.18;2.00;;;13.50;77.00;;;;;;5115197;28;20114;-63
2022/09/20 00:53:25;;;;;;;7.85;2.15;;;13.50;77.10;;;;;;5114912;28;20359;-63
2022/09/20 00:56:00;;;;;;;5.38;1.50;;;13.40;77.10;;;;;;5114239;28;20417;-63
2022/09/20 00:58:29;;;;;;;5.00;1.42;;;13.40;77.10;;;;;;5116800;28;20039;-63
2022/09/20 01:00:57;;;;;;;7.55;1.85;;;13.50;77.20;;;;;;5116143;27;20031;-63
2022/09/20 01:03:28;;;;;;;6.07;2.03;;;13.50;77.30;;;;;;5115286;28;20028;-63
2022/09/20 01:05:54;;;;;;;;;;;13.50;77.20;;;;;;5114941;28;20355;-63
2022/09/20 01:08:23;;;;;;;4.97;1.75;;;13.50;77.10;;;;;;5115813;28;20255;-63
2022/09/20 01:10:49;;;;;;;5.35;1.40;;;13.50;77.10;;;;;;5132420;27;20027;-63
2022/09/20 01:13:15;;;;;;;8.38;1.95;;;13.50;77.20;;;;;;5114689;28;20058;-63
2022/09/20 01:15:42;;;;;;;6.22;1.80;;;13.50;77.50;;;;;;5115907;28;20375;-64
2022/09/20 01:18:09;;;;;;;4.97;1.52;;;13.60;77.20;;;;;;5113184;27;20110;-63
2022/09/20 01:20:37;;;;;;;7.18;1.38;;;13.60;77.20;;;;;;5115563;27;20031;-63
2022/09/20 01:23:21;;;;;;;6.18;1.90;;;13.60;77.20;;;;;;5116093;28;20454;-63
2022/09/20 01:26:01;;;;;;;4.60;1.40;;;13.60;77.20;;;;;;5114323;28;20036;-63
2022/09/20 01:28:28;;;;;;;8.18;1.98;;;13.60;77.10;;;;;;5115258;28;20105;-63
2022/09/20 01:31:07;;;;;;;7.03;2.08;;;13.60;77.10;;;;;;5115589;28;20080;-63
2022/09/20 01:33:39;;;;;;;6.32;1.67;;;13.60;77.20;;;;;;5115080;27;20035;-63
2022/09/20 01:36:05;;;;;;;7.72;1.40;;;13.60;77.20;;;;;;5130500;27;20020;-63
2022/09/20 01:39:07;;;;;;;5.68;1.50;;;13.60;77.10;;;;;;5115162;28;20051;-63
2022/09/20 01:42:06;;;;;;;7.22;1.67;;;13.60;77.00;;;;;;5114342;28;20085;-63
2022/09/20 01:44:54;;;;;;;5.47;1.70;;;13.60;77.00;;;;;;5106518;27;20057;-63
2022/09/20 01:47:38;;;;;;;5.07;1.60;;;13.60;77.00;;;;;;5115468;28;20103;-63
2022/09/20 01:50:23;;;;;;;5.20;1.50;;;13.60;77.10;;;;;;5115905;28;20039;-63
2022/09/20 01:53:14;;;;;;;6.18;1.58;;;13.60;77.10;;;;;;5114723;28;20043;-63
2022/09/20 01:56:04;;;;;;;5.72;1.65;;;13.60;77.10;;;;;;5114592;28;20092;-63
2022/09/20 01:58:51;;;;;;;4.30;1.60;;;13.60;77.10;;;;;;5114314;28;20027;-63
2022/09/20 02:01:52;;;;;;;5.45;1.67;;;13.60;77.10;;;;;;5130998;27;20172;-63
2022/09/20 02:04:36;;;;;;;7.40;1.60;;;13.60;77.20;;;;;;5113540;27;20074;-63
2022/09/20 02:07:39;;;;;;;4.22;1.33;;;13.60;77.90;;;;;;5114557;27;20024;-63
2022/09/20 02:10:32;;;;;;;8.40;1.80;;;13.60;77.30;;;;;;5115905;27;20464;-63
2022/09/20 02:13:02;;;;;;;5.65;1.92;;;13.60;77.30;;;;;;5114024;27;20460;-63
2022/09/20 02:15:56;;;;;;;5.65;2.00;;;13.60;77.30;;;;;;5115208;28;20031;-63
2022/09/20 02:18:46;;;;;;;7.15;1.50;;;13.60;77.30;;;;;;5117340;27;20169;-63
2022/09/20 02:21:33;;;;;;;5.72;1.58;;;13.60;77.40;;;;;;5111737;27;20027;-64
2022/09/20 02:24:22;;;;;;;7.35;2.08;;;13.60;77.40;;;;;;5113864;28;20391;-63
2022/09/20 02:26:56;;;;;;;7.30;1.80;;;13.60;77.50;;;;;;5130169;27;20035;-63
2022/09/20 02:29:52;;;;;;;6.93;1.90;;;13.60;77.50;;;;;;5114848;28;20080;-63
2022/09/20 02:32:27;;;;;;;8.82;1.77;;;13.60;77.50;;;;;;5129914;27;20020;-63
2022/09/20 02:34:53;;;;;;;7.35;1.70;;;13.60;77.50;;;;;;5114151;28;20470;-63
2022/09/20 02:37:40;;;;;;;7.32;1.90;;;13.60;77.50;;;;;;5113708;28;20034;-63
2022/09/20 02:40:43;;;;;;;4.63;1.55;;;13.60;77.60;;;;;;5128959;27;20363;-63
2022/09/20 02:43:32;;;;;;;8.18;2.20;;;13.60;77.60;;;;;;5112367;28;20031;-63
2022/09/20 02:46:05;;;;;;;6.50;1.92;;;13.60;77.60;;;;;;5113977;28;20347;-63
2022/09/20 02:48:54;;;;;;;6.70;1.60;;;13.60;77.60;;;;;;5095935;28;20027;-63
2022/09/20 02:51:26;;;;;;;6.65;1.92;;;13.60;77.60;;;;;;5111519;27;20038;-63
2022/09/20 02:54:02;;;;;;;6.80;1.77;;;13.60;77.50;;;;;;5114278;27;20114;-63
2022/09/20 02:56:59;;;;;;;5.32;1.50;;;13.60;77.50;;;;;;5114270;28;20019;-63
2022/09/20 02:59:39;;;;;;;6.32;1.90;;;13.60;77.60;;;;;;5114081;28;20420;-63
2022/09/20 03:02:29;;;;;;;6.20;1.83;;;13.60;77.60;;;;;;5111171;27;20076;-63
2022/09/20 03:05:24;;;;;;;7.68;1.73;;;13.60;77.50;;;;;;5113009;28;20027;-63
2022/09/20 03:08:07;;;;;;;6.93;1.85;;;13.60;77.40;;;;;;5114334;28;20027;-63
2022/09/20 03:11:02;;;;;;;6.03;1.40;;;13.60;77.40;;;;;;5111382;28;20032;-63
2022/09/20 03:13:54;;;;;;;5.13;1.33;;;13.60;77.30;;;;;;5113600;28;20058;-63
2022/09/20 03:16:35;;;;;;;;;;;13.70;77.40;;;;;;5113124;28;20032;-63
2022/09/20 03:19:45;;;;;;;5.93;1.40;;;13.60;77.30;;;;;;5113918;28;19908;-63
2022/09/20 03:22:20;;;;;;;5.97;2.10;;;13.60;77.30;;;;;;5112623;28;20020;-63
2022/09/20 03:25:17;;;;;;;6.63;1.50;;;13.60;77.30;;;;;;5112298;28;20110;-63
2022/09/20 03:27:53;;;;;;;6.20;1.90;;;13.60;77.20;;;;;;5113969;28;20423;-63
2022/09/20 03:30:46;;;;;;;6.28;1.92;;;13.60;77.30;;;;;;5112824;28;20034;-63
2022/09/20 03:33:20;;;;;;;5.40;1.50;;;13.60;77.30;;;;;;5113331;27;20023;-63
2022/09/20 03:36:10;;;;;;;8.57;1.90;;;13.60;77.30;;;;;;5112459;28;20038;-63
2022/09/20 03:38:53;;;;;;;5.97;1.65;;;13.60;77.30;;;;;;5112364;28;20127;-63
2022/09/20 03:41:47;;;;;;;7.57;1.95;;;13.60;77.30;;;;;;5113023;28;20027;-63
2022/09/20 03:44:30;;;;;;;4.65;1.45;;;13.60;77.50;;;;;;5111802;28;20024;-63
2022/09/20 03:47:28;;;;;;;5.85;1.98;;;13.60;77.50;;;;;;5113858;28;20373;-63
2022/09/20 03:50:05;;;;;;;10.07;2.05;;;13.60;77.50;;;;;;5122676;28;20380;-63
2022/09/20 03:52:44;;;;;;;6.20;1.80;;;13.60;77.60;;;;;;5112023;28;20080;-63
2022/09/20 03:55:18;;;;;;;8.20;1.90;;;13.60;77.60;;;;;;5113456;28;20102;-63
2022/09/20 03:57:57;;;;;;;7.65;1.88;;;13.60;77.60;;;;;;5113500;28;20088;-63
2022/09/20 04:00:44;;;;;;;5.93;1.85;;;13.60;78.40;;;;;;5112985;28;20031;-63
2022/09/20 04:03:44;;;;;;;5.82;1.50;;;13.60;77.80;;;;;;5111669;28;20032;-63
2022/09/20 04:06:46;;;;;;;5.65;1.70;;;13.50;77.80;;;;;;5110047;28;20043;-63
2022/09/20 04:09:18;;;;;;;;;;;13.60;77.90;;;;;;5114050;28;20119;-63
2022/09/20 04:12:02;;;;;;;5.75;1.75;;;13.50;77.70;;;;;;5110832;28;19907;-63
2022/09/20 04:15:03;;;;;;;7.35;2.10;;;13.50;77.80;;;;;;5111661;28;20134;-63
2022/09/20 04:17:56;;;;;;;6.63;2.27;;;13.60;77.90;;;;;;5031378;28;20034;-63
2022/09/20 04:20:42;;;;;;;6.07;1.92;;;13.60;77.90;;;;;;5027653;28;20410;-63
2022/09/20 04:23:35;;;;;;;6.05;2.03;;;13.50;78.00;;;;;;5030799;28;20033;-63
2022/09/20 04:26:02;;;;;;;4.45;1.65;;;13.50;78.00;;;;;;5017826;28;20025;-63
2022/09/20 04:28:46;;;;;;;6.18;1.95;;;13.50;78.00;;;;;;5018631;28;20040;-63
2022/09/20 04:31:26;;;;;;;8.68;2.08;;;13.50;78.10;;;;;;5034367;28;20033;-63
2022/09/20 04:33:56;;;;;;;5.32;1.77;;;13.50;78.20;;;;;;5034335;28;20053;-63
2022/09/20 04:37:02;;;;;;;5.65;1.92;;;13.50;78.90;;;;;;5013429;28;20029;-63
2022/09/20 04:39:48;;;;;;;9.68;2.05;;;13.40;78.10;;;;;;5034586;28;20033;-63
2022/09/20 04:42:53;;;;;;;4.97;2.05;;;13.40;78.20;;;;;;5033992;28;20037;-63
2022/09/20 04:45:33;;;;;;;6.18;2.03;;;13.40;78.30;;;;;;5033810;28;20026;-63
2022/09/20 04:48:05;;;;;;;5.47;1.77;;;13.30;78.30;;;;;;5035072;28;20048;-63
2022/09/20 04:50:49;;;;;;;5.88;1.77;;;13.30;78.30;;;;;;5034685;28;20041;-63
2022/09/20 04:53:27;;;;;;;7.88;1.92;;;13.30;78.30;;;;;;5019346;28;20041;-63
2022/09/20 04:55:55;;;;;;;5.50;1.73;;;13.30;78.40;;;;;;5126679;27;20023;-63
2022/09/20 04:58:46;;;;;;;7.47;1.60;;;13.30;78.40;;;;;;5118019;28;20063;-63
2022/09/20 05:01:18;;;;;;;4.90;1.90;;;13.40;78.50;;;;;;5135130;27;20020;-63
2022/09/20 05:03:43;;;;;;;;;;;13.30;78.50;;;;;;5117475;28;20066;-63
2022/09/20 05:06:37;;;;;;;5.95;1.75;;;13.30;78.40;;;;;;5118242;28;19904;-63
2022/09/20 05:09:24;;;;;;;6.93;1.67;;;13.30;78.50;;;;;;5105549;28;20031;-63
2022/09/20 05:11:55;;;;;;;6.50;1.90;;;13.30;78.50;;;;;;5118181;27;20516;-63
2022/09/20 05:14:55;;;;;;;5.50;1.90;;;13.30;78.50;;;;;;5116262;28;20126;-63
2022/09/20 05:17:29;;;;;;;5.90;2.22;;;13.40;78.60;;;;;;5122149;27;20359;-64
2022/09/20 05:20:29;;;;;;;6.75;2.35;;;13.40;78.70;;;;;;5115937;28;20040;-64
2022/09/20 05:23:17;;;;;;;8.10;2.35;;;13.40;78.70;;;;;;5116279;27;20041;-64
2022/09/20 05:25:53;;;;;;;7.53;2.15;;;13.40;78.80;;;;;;5117371;28;20092;-63
2022/09/20 05:28:29;;;;;;;4.95;1.90;;;13.40;78.80;;;;;;5117649;28;20091;-63
2022/09/20 05:31:01;;;;;;;5.88;2.15;;;13.40;78.80;;;;;;5115900;28;20035;-63
2022/09/20 05:33:37;;;;;;;8.35;2.42;;;13.40;78.80;;;;;;5117278;27;20034;-62
2022/09/20 05:36:27;;;;;;;5.00;1.75;;;13.50;78.90;;;;;;5118685;27;20103;-63
2022/09/20 05:39:09;;;;;;;7.60;2.45;;;13.50;78.80;;;;;;5125249;27;20028;-63
2022/09/20 05:41:55;;;;;;;5.93;2.10;;;13.50;78.90;;;;;;5116732;28;20035;-63
2022/09/20 05:44:53;;;;;;;5.53;1.83;;;13.50;78.80;;;;;;5117201;28;20363;-63
2022/09/20 05:47:50;;;;;;;6.57;2.20;;;13.50;78.80;;;;;;5116688;28;20388;-63
2022/09/20 05:50:39;;;;;;;6.80;2.08;;;13.50;78.80;;;;;;5103163;28;20416;-63
2022/09/20 05:53:31;;;;;;;7.72;2.20;;;13.50;78.70;;;;;;5127970;27;20072;-63
2022/09/20 05:56:11;;;;;;;5.80;2.30;;;13.50;78.60;;;;;;5116525;28;20039;-63
2022/09/20 05:58:44;;;;;;;7.57;2.13;;;13.50;78.60;;;;;;5116890;28;20371;-63
2022/09/20 06:01:18;;;;;;;5.43;1.67;;;13.50;78.60;;;;;;5131482;27;20046;-62
2022/09/20 06:03:54;;;;;;;6.60;2.08;;;13.50;78.70;;;;;;5114100;27;20839;-63
2022/09/20 06:06:37;;;;;;;7.60;2.47;;;13.50;78.70;;;;;;5109917;28;20345;-63
2022/09/20 06:09:19;;;;;;;6.45;1.85;;;13.50;78.70;;;;;;5103257;28;20364;-63
2022/09/20 06:11:53;;;;;;;8.32;2.20;;;13.50;78.70;;;;;;5115122;27;20044;-62
2022/09/20 06:14:41;;;;;;;7.40;2.20;;;13.50;78.70;;;;;;5114302;27;20153;-62
2022/09/20 06:17:25;;;;;;;10.13;2.80;;;13.50;78.60;;;;;;5120391;27;20035;-62
2022/09/20 06:20:32;;;;;;;8.95;2.58;;;13.50;78.60;;;;;;5113462;28;20027;-62
2022/09/20 06:22:59;;;;;;;7.93;2.60;;;13.50;78.50;;;;;;5124909;27;20031;-64
2022/09/20 06:25:30;;;;;;;8.32;2.38;;;13.50;78.50;;;;;;5129836;27;20114;-61
2022/09/20 06:28:16;;;;;;;8.02;2.17;;;13.50;78.50;;;;;;5114540;28;20460;-62
2022/09/20 06:31:00;;;;;;;7.82;2.22;;;13.50;78.50;;;;;;5111383;28;20552;-62
2022/09/20 06:33:27;;;;;;;6.30;2.20;;;13.60;78.50;;;;;;5115486;27;20038;-64
2022/09/20 06:42:29;;;;;;;7.18;2.28;;;13.80;78.20;;;;;;5033314;28;20053;-63
2022/09/20 06:44:55;;;;;;;7.63;2.35;;;13.80;78.10;;;;;;5031115;28;20038;-62
2022/09/20 06:47:25;;;;;;;8.23;2.28;;;13.80;78.10;;;;;;5032550;28;20033;-63
2022/09/20 06:49:50;;;;;;;7.32;2.47;;;13.80;78.00;;;;;;5015129;28;20084;-63
2022/09/20 06:52:18;;;;;;;6.75;2.20;;;13.90;78.00;;;;;;5033099;28;20473;-63
2022/09/20 06:54:49;;;;;;;8.73;2.50;;;13.90;77.90;;;;;;5015441;28;20096;-64
2022/09/20 06:57:18;;;;;;;7.82;2.67;;;14.00;77.90;;;;;;5029711;28;20060;-64
2022/09/20 06:59:44;;;;;;;7.68;2.40;;;14.00;77.80;;;;;;5033901;28;20033;-63
2022/09/20 07:02:13;;;;;;;20.63;2.30;;;14.10;77.70;;;;;;5032826;28;20037;-63
2022/09/20 07:04:38;;;;;;;7.97;2.40;;;14.10;77.60;;;;;;5015214;28;20132;-63
2022/09/20 07:07:06;;;;;;;7.97;2.10;;;14.10;77.50;;;;;;5030289;28;20335;-63
2022/09/20 07:09:31;;;;;;;5.32;2.08;;;14.10;77.40;;;;;;5024627;28;20033;-63
2022/09/20 07:12:00;;;;;;;8.23;2.17;;;14.20;77.40;;;;;;5013481;28;20217;-63
2022/09/20 07:14:26;;;;;;;8.45;1.88;;;14.20;77.70;;;;;;5029658;28;20486;-61
2022/09/20 07:16:55;;;;;;;7.50;2.45;;;14.20;77.20;;;;;;5039889;27;20050;-62
2022/09/20 07:19:22;;;;;;;7.05;2.40;;;14.20;77.30;;;;;;5118457;27;20031;-63
2022/09/20 07:21:48;;;;;;;5.28;1.80;;;14.10;77.40;;;;;;5113732;28;20134;-64
2022/09/20 07:24:13;;;;;;;6.70;1.90;;;14.10;77.50;;;;;;5120210;27;20063;-64
2022/09/20 07:26:53;;;;;;;6.60;1.88;;;14.00;77.60;;;;;;5113983;28;20059;-63
2022/09/20 07:29:18;;;;;;;6.95;2.50;;;14.00;77.80;;;;;;5117896;27;20023;-64
2022/09/20 07:31:44;;;;;;;6.05;1.88;;;13.90;77.90;;;;;;5115693;28;20487;-64
2022/09/20 07:34:09;;;;;;;6.97;2.17;;;14.00;78.00;;;;;;5113734;28;20050;-63
2022/09/20 07:36:35;;;;;;;29.40;3.55;;;14.00;77.90;;;;;;5113894;28;20035;-63
2022/09/20 07:39:02;;;;;;;11.75;2.15;;;14.00;78.00;;;;;;5118636;27;20034;-63
2022/09/20 07:41:30;;;;;;;8.60;2.05;;;14.00;78.10;;;;;;5113993;28;20117;-63
2022/09/20 07:44:19;;;;;;;10.30;2.15;;;14.00;78.20;;;;;;5117242;28;20050;-63
2022/09/20 07:46:44;;;;;;;5.88;1.75;;;14.10;78.20;;;;;;5114453;28;20173;-63
2022/09/20 07:49:09;;;;;;;6.15;1.90;;;14.10;78.10;;;;;;5114660;28;20031;-63
2022/09/20 07:51:35;;;;;;;7.18;1.73;;;14.20;78.10;;;;;;5113196;28;20031;-63
2022/09/20 07:54:01;;;;;;;4.07;1.85;;;14.20;77.90;;;;;;5114615;28;20057;-63
2022/09/20 07:56:26;;;;;;;4.43;1.30;;;14.30;77.80;;;;;;5113233;28;20028;-63
2022/09/20 07:58:52;;;;;;;5.53;1.60;;;14.30;77.80;;;;;;5116604;28;20028;-63
2022/09/20 08:01:19;;;;;;;5.80;1.50;;;14.40;77.80;;;;;;5118862;28;20016;-62
2022/09/20 08:03:45;;;;;;;5.72;1.92;;;14.50;77.70;;;;;;5118759;27;20413;-63
2022/09/20 08:06:15;;;;;;;7.70;2.00;;;14.60;77.60;;;;;;5117279;28;20040;-63
2022/09/20 08:08:41;;;;;;;6.88;2.20;;;14.70;77.40;;;;;;5117967;27;20019;-63
2022/09/20 08:11:09;;;;;;;9.18;2.22;;;14.80;77.20;;;;;;5117918;28;20032;-62
2022/09/20 08:13:45;;;;;;;9.30;2.50;;;15.20;76.90;;;;;;5118440;27;20043;-63
2022/09/20 08:16:12;;;;;;;9.65;2.40;;;15.60;76.20;;;;;;5119044;28;20114;-63
2022/09/20 08:18:45;;;;;;;11.50;2.30;;;15.90;75.40;;;;;;5116486;28;20027;-63
2022/09/20 08:21:11;;;;;;;5.75;2.17;;;16.30;74.80;;;;;;5118106;28;20020;-63
2022/09/20 08:23:39;;;;;;;8.05;1.85;;;16.60;73.90;;;;;;5119409;27;20110;-63
2022/09/20 08:26:06;;;;;;;4.45;1.92;;;16.90;73.20;;;;;;5121856;27;20031;-62
2022/09/20 08:28:32;;;;;;;6.47;1.95;;;17.10;72.60;;;;;;5116865;28;20391;-62
2022/09/20 08:31:07;;;;;;;5.18;1.88;;;17.10;72.40;;;;;;5120965;27;20024;-62
2022/09/20 08:33:33;;;;;;;5.30;1.70;;;16.90;72.20;;;;;;5116937;27;20019;-63
2022/09/20 08:35:59;;;;;;;5.25;1.55;;;16.70;72.60;;;;;;5117142;28;20020;-62
2022/09/20 08:38:26;;;;;;;4.05;1.50;;;16.80;72.50;;;;;;5118070;27;20042;-62
2022/09/20 08:41:09;;;;;;;7.50;1.70;;;16.90;72.20;;;;;;5128400;27;20092;-63
2022/09/20 08:43:38;;;;;;;6.82;1.40;;;17.00;72.00;;;;;;5113633;28;20043;-63
2022/09/20 08:46:09;;;;;;;8.00;1.80;;;17.40;71.40;;;;;;5118067;28;20031;-64
2022/09/20 08:48:34;;;;;;;6.80;1.90;;;17.70;70.50;;;;;;5101780;28;20146;-62
2022/09/20 08:51:01;;;;;;;8.32;2.25;;;17.90;70.10;;;;;;5117376;28;20052;-63
2022/09/20 08:53:29;;;;;;;7.38;2.05;;;17.90;70.00;;;;;;5117247;28;20116;-61
2022/09/20 08:55:58;;;;;;;8.18;1.80;;;17.80;69.80;;;;;;5126860;27;20028;-66
2022/09/20 08:58:26;;;;;;;7.18;1.60;;;17.70;69.80;;;;;;5117947;28;20065;-62
2022/09/20 09:00:52;;;;;;;4.13;1.38;;;17.60;70.00;;;;;;5119059;27;20034;-63
2022/09/20 09:03:18;;;;;;;6.22;1.60;;;17.50;70.00;;;;;;5117380;28;20106;-63
2022/09/20 09:05:54;;;;;;;7.55;1.48;;;17.50;70.00;;;;;;5117140;28;20400;-62
2022/09/20 09:08:23;;;;;;;4.72;1.17;;;17.40;70.00;;;;;;5116243;28;20456;-62
2022/09/20 09:10:58;;;;;;;5.80;1.20;;;17.30;69.90;;;;;;5129904;27;20438;-62
2022/09/20 09:13:41;;;;;;;6.25;1.40;;;17.20;69.80;;;;;;5116326;27;20039;-62
2022/09/20 09:16:15;;;;;;;5.05;1.50;;;17.20;70.00;;;;;;5116518;28;20420;-62
2022/09/20 09:18:43;;;;;;;5.63;1.27;;;17.10;70.10;;;;;;5117624;28;20323;-63
2022/09/20 09:21:21;;;;;;;2.75;0.98;;;17.10;70.30;;;;;;5117256;27;20020;-63
2022/09/20 09:23:50;;;;;;;7.10;1.42;;;17.10;70.10;;;;;;5116093;28;20035;-62
2022/09/20 09:26:21;;;;;;;3.08;1.08;;;17.00;70.00;;;;;;5115304;28;20032;-63
2022/09/20 09:29:07;;;;;;;3.40;1.23;;;16.90;70.00;;;;;;5116957;28;20131;-63
2022/09/20 09:31:33;;;;;;;4.43;1.00;;;16.80;70.60;;;;;;5115529;27;20041;-63
2022/09/20 09:33:59;;;;;;;3.88;1.40;;;16.70;70.10;;;;;;5116652;28;20020;-63
2022/09/20 09:36:26;;;;;;;6.57;1.90;;;16.70;70.10;;;;;;5115556;27;20023;-64
2022/09/20 09:39:29;;;;;;;6.57;1.50;;;16.60;70.00;;;;;;5116697;28;20024;-63
2022/09/20 09:41:56;;;;;;;10.10;1.63;;;16.60;70.00;;;;;;5112447;27;20031;-63
2022/09/20 09:44:26;;;;;;;3.65;1.10;;;16.60;70.10;;;;;;5115719;28;20039;-63
2022/09/20 09:46:53;;;;;;;5.88;1.50;;;16.60;70.10;;;;;;5130771;27;20367;-63
2022/09/20 09:49:29;;;;;;;10.90;1.98;;;16.60;69.90;;;;;;5116117;28;20059;-63
2022/09/20 09:52:01;;;;;;;4.28;1.30;;;16.80;69.80;;;;;;5114341;28;20031;-63
2022/09/20 09:54:37;;;;;;;6.05;1.55;;;16.90;69.10;;;;;;5115127;28;20039;-63
2022/09/20 09:57:30;;;;;;;5.25;1.55;;;17.00;68.70;;;;;;5114882;28;20035;-63
2022/09/20 10:00:11;;;;;;;12.65;1.75;;;17.00;68.20;;;;;;5112843;28;20020;-63
2022/09/20 10:03:19;;;;;;;3.00;1.20;;;17.10;68.20;;;;;;5114481;27;20031;-63
2022/09/20 10:06:16;;;;;;;5.10;1.65;;;17.20;68.10;;;;;;5115970;28;20016;-63
2022/09/20 10:09:00;;;;;;;4.85;1.00;;;17.30;67.90;;;;;;5114876;27;20034;-63
2022/09/20 10:11:37;;;;;;;3.88;1.13;;;17.30;67.70;;;;;;5115022;27;20050;-64
2022/09/20 10:14:21;;;;;;;2.63;1.13;;;17.40;67.20;;;;;;5114713;28;20092;-64
2022/09/20 10:17:22;;;;;;;3.72;1.05;;;17.70;66.90;;;;;;5114584;28;20039;-63
2022/09/20 10:20:06;;;;;;;6.80;1.27;;;18.10;66.20;;;;;;5127004;27;20076;-63
2022/09/20 10:22:57;;;;;;;3.53;1.38;;;18.30;65.60;;;;;;5115502;28;20063;-63
2022/09/20 10:25:53;;;;;;;3.45;1.00;;;18.70;64.60;;;;;;5116054;28;20035;-63
2022/09/20 10:28:33;;;;;;;4.88;1.40;;;18.70;64.30;;;;;;5103603;28;20420;-63
2022/09/20 10:31:19;;;;;;;3.25;1.00;;;18.60;64.40;;;;;;5128042;27;20057;-63
2022/09/20 10:34:22;;;;;;;3.33;0.90;;;18.50;64.00;;;;;;5100342;27;20042;-63
2022/09/20 10:36:48;;;;;;;4.55;1.10;;;18.60;64.00;;;;;;5130255;27;20035;-63
2022/09/20 10:39:45;;;;;;;3.58;1.10;;;18.50;64.00;;;;;;5122541;27;20035;-63
2022/09/20 10:45:32;;;;;;;5.78;1.20;;;18.40;62.90;;;;;;5115111;27;20031;-63
2022/09/20 10:48:22;;;;;;;2.67;0.80;;;18.40;62.50;;;;;;5122352;27;20137;-63
2022/09/20 10:51:05;;;;;;;3.30;1.27;;;18.50;61.80;;;;;;5114692;27;20386;-63
2022/09/20 10:53:53;;;;;;;3.85;0.98;;;18.50;61.40;;;;;;5113108;28;20410;-63
2022/09/20 10:56:27;;;;;;;4.18;0.98;;;18.40;61.40;;;;;;5114139;28;20487;-63
2022/09/20 10:59:05;;;;;;;4.75;0.88;;;18.40;61.30;;;;;;5114851;27;20027;-63
2022/09/20 11:02:00;;;;;;;5.20;1.33;;;18.30;60.50;;;;;;5123137;27;20031;-63
2022/09/20 11:04:49;;;;;;;5.63;1.00;;;18.30;59.60;;;;;;5107595;28;20514;-63
2022/09/20 11:07:24;;;;;;;2.85;1.00;;;18.20;59.40;;;;;;5114652;28;20122;-63
2022/09/20 11:09:58;;;;;;;2.83;0.93;;;18.10;59.40;;;;;;5114817;28;20425;-63
2022/09/20 11:12:37;;;;;;;2.05;0.73;;;18.10;59.60;;;;;;5115661;27;20031;-62
2022/09/20 11:15:11;;;;;;;5.70;1.23;;;18.00;59.70;;;;;;5114219;28;20063;-63
2022/09/20 11:17:46;;;;;;;5.00;1.00;;;18.00;59.60;;;;;;5126507;27;20034;-63
2022/09/20 11:20:22;;;;;;;3.95;1.05;;;17.90;59.40;;;;;;5111506;28;20039;-62
2022/09/20 11:23:00;;;;;;;3.65;1.60;;;17.90;59.60;;;;;;5130369;27;20074;-62
2022/09/20 11:25:44;;;;;;;4.85;1.20;;;17.90;59.80;;;;;;5113599;28;20081;-62
2022/09/20 11:28:22;;;;;;;2.85;0.98;;;17.90;59.80;;;;;;5113008;28;20458;-62
2022/09/20 11:31:08;;;;;;;3.17;0.95;;;17.90;59.80;;;;;;5139298;27;20035;-62
2022/09/20 11:33:45;;;;;;;3.90;1.35;;;18.00;59.80;;;;;;5106997;28;20035;-62
2022/09/20 11:36:22;;;;;;;7.18;1.25;;;18.00;60.20;;;;;;5114170;28;20035;-63
2022/09/20 11:38:51;;;;;;;8.10;1.45;;;17.90;60.30;;;;;;5114586;28;20028;-62
2022/09/20 11:41:19;;;;;;;5.20;1.33;;;17.90;60.60;;;;;;5130570;27;20031;-63
2022/09/20 11:43:47;;;;;;;6.57;1.42;;;17.90;60.80;;;;;;5114246;28;20032;-62
2022/09/20 11:46:20;;;;;;;6.45;1.25;;;17.80;60.90;;;;;;5125648;27;20084;-62
2022/09/20 11:48:52;;;;;;;3.60;0.93;;;17.70;60.80;;;;;;5124810;27;20036;-62
2022/09/20 11:51:39;;;;;;;5.63;1.30;;;17.80;60.90;;;;;;5114694;28;20432;-62
2022/09/20 11:54:31;;;;;;;4.63;1.40;;;17.90;60.80;;;;;;5129485;27;20038;-62
2022/09/20 11:56:57;;;;;;;5.13;0.98;;;18.10;60.20;;;;;;5114404;28;20039;-63
2022/09/20 11:59:39;;;;;;;3.97;1.02;;;18.20;60.20;;;;;;5129186;28;20020;-63
2022/09/20 12:02:22;;;;;;;2.65;0.88;;;18.50;59.80;;;;;;5124809;28;20036;-63
2022/09/20 12:04:52;;;;;;;6.97;1.35;;;18.80;58.90;;;;;;5111630;28;20087;-63
2022/09/20 12:07:17;;;;;;;4.32;1.33;;;19.10;58.60;;;;;;5130770;28;20055;-64
2022/09/20 12:09:52;;;;;;;3.17;1.20;;;19.10;58.20;;;;;;5113112;28;20496;-63
2022/09/20 12:12:36;;;;;;;3.55;1.10;;;19.10;58.20;;;;;;5100725;28;20020;-64
2022/09/20 12:15:05;;;;;;;5.28;1.40;;;19.00;57.90;;;;;;5114798;28;20340;-64
2022/09/20 12:18:25;;;;;;;3.13;0.80;;;18.80;58.20;;;;;;5114309;28;20027;-64
2022/09/20 12:20:57;;;;;;;3.83;1.02;;;18.60;58.20;;;;;;5071697;28;20052;-64
2022/09/20 12:23:56;;;;;;;5.15;1.02;;;18.40;58.50;;;;;;5071759;28;20044;-64
2022/09/20 12:26:21;;;;;;;2.90;0.90;;;18.30;58.70;;;;;;5025559;28;20041;-64
2022/09/20 12:28:51;;;;;;;5.38;1.25;;;18.30;58.90;;;;;;5013635;28;20034;-64
2022/09/20 12:31:28;;;;;;;2.78;0.98;;;18.30;58.80;;;;;;5032339;28;20487;-64
2022/09/20 12:34:13;;;;;;;4.72;1.13;;;18.30;58.70;;;;;;4999263;28;20041;-64
2022/09/20 12:37:09;;;;;;;4.80;0.90;;;18.30;58.80;;;;;;5032122;28;20041;-64
2022/09/20 12:39:39;;;;;;;3.60;1.02;;;18.20;58.90;;;;;;5010221;28;20429;-63
2022/09/20 12:42:13;;;;;;;4.43;1.20;;;18.10;59.10;;;;;;5035421;28;20045;-64
2022/09/20 12:44:56;;;;;;;3.42;1.08;;;18.10;59.00;;;;;;5015748;28;20037;-64
2022/09/20 12:47:33;;;;;;;6.25;1.08;;;18.00;59.00;;;;;;5035765;28;20038;-63
2022/09/20 12:53:02;;;;;;;2.25;0.90;;;17.80;59.30;;;;;;5033660;28;20106;-61
2022/09/20 12:55:44;;;;;;;4.15;1.30;;;17.80;59.50;;;;;;5043838;28;20036;-61
2022/09/20 13:00:39;;;;;;;2.72;0.70;;;17.60;59.40;;;;;;5075024;28;20124;-61
2022/09/20 13:03:32;;;;;;;6.20;1.13;;;17.70;59.40;;;;;;5118705;27;20071;-65
2022/09/20 13:06:04;;;;;;;3.38;0.80;;;17.60;59.10;;;;;;5124641;27;20047;-61
2022/09/20 13:08:38;;;;;;;3.95;1.00;;;17.70;59.00;;;;;;5117749;28;20103;-62
2022/09/20 13:11:12;;;;;;;3.65;1.10;;;17.70;58.90;;;;;;5117956;28;20031;-63
2022/09/20 13:13:58;;;;;;;6.32;1.33;;;17.80;58.70;;;;;;5116735;28;20118;-62
2022/09/20 13:16:30;;;;;;;5.78;1.35;;;17.80;58.50;;;;;;5117535;28;20042;-62
2022/09/20 13:19:14;;;;;;;5.38;1.10;;;17.80;58.40;;;;;;5120352;27;20030;-61
2022/09/20 13:21:51;;;;;;;9.85;1.40;;;17.90;58.30;;;;;;5103346;28;20027;-61
2022/09/20 13:24:19;;;;;;;7.60;1.58;;;17.90;58.30;;;;;;5133613;27;20106;-62
2022/09/20 13:26:46;;;;;;;4.43;1.20;;;17.90;58.30;;;;;;5117248;28;20027;-61
2022/09/20 13:29:39;;;;;;;5.40;1.23;;;17.90;58.30;;;;;;5117565;27;20452;-62
2022/09/20 13:32:14;;;;;;;4.50;1.25;;;17.80;58.30;;;;;;5114296;28;20361;-62
2022/09/20 13:34:40;;;;;;;4.22;0.90;;;17.70;58.40;;;;;;5127244;27;20470;-62
2022/09/20 13:37:19;;;;;;;4.13;1.08;;;17.60;58.60;;;;;;5116816;28;20032;-62
2022/09/20 13:39:45;;;;;;;4.00;1.00;;;17.60;58.70;;;;;;5117022;28;20359;-63
2022/09/20 13:42:15;;;;;;;4.05;1.13;;;17.60;59.00;;;;;;5116569;28;20031;-62
2022/09/20 13:44:42;;;;;;;5.63;1.05;;;17.60;59.10;;;;;;5116885;28;20102;-62
2022/09/20 13:47:30;;;;;;;2.22;0.80;;;17.50;59.20;;;;;;5116618;27;20112;-63
2022/09/20 13:50:25;;;;;;;4.72;1.20;;;17.50;59.50;;;;;;5117541;27;20215;-63
2022/09/20 13:52:57;;;;;;;5.43;1.20;;;17.40;59.60;;;;;;5123993;27;20062;-63
2022/09/20 13:55:33;;;;;;;4.93;1.17;;;17.40;59.90;;;;;;5116102;28;20094;-62
2022/09/20 13:58:06;;;;;;;5.32;1.30;;;17.40;60.10;;;;;;5116837;28;20038;-62